Time;durP1;ratioP1;P1;durP2;ratioP2;P2;SDS_P1;SDS_P2;PMS_P1;PMS_P2;Temp;Humidity;BMP_temperature;BMP_pressure;BME280_temperature;BME280_humidity;BME280_pressure;Samples;Min_cycle;Max_cycle;Signal;HPM_P1;HPM_P2
2023/03/02 00:01:30;;;;;;;15.30;11.37;;;;;;;1.73;83.35;100554.34;4963527;28;20237;-61
2023/03/02 00:03:57;;;;;;;15.27;10.93;;;;;;;1.66;83.75;100557.78;4967660;28;20204;-61
2023/03/02 00:06:26;;;;;;;14.65;11.50;;;;;;;1.86;83.26;100549.97;4971055;28;20422;-62
2023/03/02 00:08:51;;;;;;;14.23;10.40;;;;;;;1.68;82.92;100551.03;4973207;28;20241;-61
2023/03/02 00:11:16;;;;;;;14.60;10.23;;;;;;;1.61;84.50;100547.69;4972325;28;20233;-61
2023/03/02 00:13:43;;;;;;;14.07;10.90;;;;;;;1.55;84.91;100548.63;4976957;28;20674;-62
2023/03/02 00:16:08;;;;;;;16.17;11.23;;;;;;;1.56;85.37;100554.50;4964042;28;20322;-61
2023/03/02 00:18:33;;;;;;;15.77;10.63;;;;;;;1.57;85.44;100556.19;4979779;28;20301;-61
2023/03/02 00:20:58;;;;;;;14.27;10.87;;;;;;;1.55;85.38;100556.22;4976327;28;20231;-61
2023/03/02 00:23:24;;;;;;;15.27;10.47;;;;;;;1.54;85.49;100553.69;4980873;28;20176;-61
2023/03/02 00:25:49;;;;;;;16.43;10.50;;;;;;;1.53;85.47;100555.38;4972509;28;20215;-62
2023/03/02 00:28:15;;;;;;;13.83;9.97;;;;;;;1.52;86.39;100553.69;4972265;28;20214;-61
2023/03/02 00:30:40;;;;;;;13.77;10.53;;;;;;;1.48;86.66;100552.06;4967557;28;20229;-60
2023/03/02 00:33:05;;;;;;;18.13;11.23;;;;;;;1.52;87.00;100546.09;4983441;28;20238;-60
2023/03/02 00:35:36;;;;;;;15.70;10.80;;;;;;;1.46;86.84;100541.09;4972525;28;20232;-61
2023/03/02 00:38:02;;;;;;;15.20;9.83;;;;;;;1.45;87.08;100535.19;4970670;28;20319;-62
2023/03/02 00:40:27;;;;;;;12.47;9.63;;;;;;;1.47;86.38;100532.63;4965913;28;20323;-62
2023/03/02 00:42:52;;;;;;;15.03;10.40;;;;;;;1.48;86.58;100533.44;4977971;28;20543;-61
2023/03/02 00:45:17;;;;;;;14.87;10.87;;;;;;;1.43;87.45;100528.44;4971106;28;20173;-61
2023/03/02 00:47:43;;;;;;;13.77;10.47;;;;;;;1.37;87.95;100533.56;4972175;28;20186;-61
2023/03/02 00:50:09;;;;;;;13.80;10.03;;;;;;;1.41;87.92;100528.44;4961630;28;20639;-61
2023/03/02 00:52:34;;;;;;;15.33;10.27;;;;;;;1.37;88.68;100523.44;4971313;28;20222;-60
2023/03/02 00:54:59;;;;;;;17.57;10.23;;;;;;;1.51;87.86;100524.13;4972372;28;20187;-61
2023/03/02 00:57:25;;;;;;;13.13;10.20;;;;;;;1.48;88.19;100516.56;4971847;28;20203;-60
2023/03/02 00:59:50;;;;;;;14.93;10.73;;;;;;;1.45;87.75;100519.13;4972287;28;20188;-67
2023/03/02 01:02:20;;;;;;;17.20;10.80;;;;;;;1.44;87.50;100525.06;4977512;28;20298;-60
2023/03/02 01:04:47;;;;;;;12.77;10.17;;;;;;;1.43;87.96;100520.84;4970143;28;20641;-60
2023/03/02 01:07:15;;;;;;;17.40;10.73;;;;;;;1.38;88.59;100517.53;4971248;28;20317;-61
2023/03/02 01:09:41;;;;;;;13.37;10.33;;;;;;;1.41;88.92;100515.75;4969193;28;20219;-59
2023/03/02 01:12:09;;;;;;;16.33;10.83;;;;;;;1.41;88.72;100520.00;4967308;28;20253;-61
2023/03/02 01:14:36;;;;;;;15.33;11.00;;;;;;;1.45;88.86;100514.03;4974561;28;20245;-60
2023/03/02 01:17:02;;;;;;;15.90;11.27;;;;;;;1.42;88.99;100501.41;4974579;28;20702;-60
2023/03/02 01:19:28;;;;;;;15.10;10.77;;;;;;;1.26;89.75;100509.16;4974622;28;20228;-60
2023/03/02 01:21:53;;;;;;;15.33;10.80;;;;;;;1.35;89.63;100499.78;4978314;28;20265;-61
2023/03/02 01:24:18;;;;;;;13.97;10.77;;;;;;;1.33;90.29;100509.09;4976859;28;20193;-61
2023/03/02 01:26:44;;;;;;;16.70;10.83;;;;;;;1.31;90.31;100504.03;4975649;28;20256;-61
2023/03/02 01:29:10;;;;;;;13.27;10.23;;;;;;;1.27;91.97;100499.88;4975866;28;20676;-61
2023/03/02 01:31:35;;;;;;;15.83;11.83;;;;;;;1.18;91.91;100503.34;4967726;28;20641;-60
2023/03/02 01:34:01;;;;;;;16.33;11.20;;;;;;;1.16;91.96;100497.44;4979053;28;20377;-60
2023/03/02 01:36:26;;;;;;;14.83;11.27;;;;;;;1.30;91.87;100492.22;4975484;28;20189;-60
2023/03/02 01:38:52;;;;;;;17.30;12.07;;;;;;;1.33;91.59;100489.69;4975390;28;20300;-60
2023/03/02 01:44:49;;;;;;;15.47;10.77;;;;;;;1.15;92.52;100487.31;4965703;28;20523;-60
2023/03/02 01:47:20;;;;;;;14.40;10.57;;;;;;;1.19;92.38;100488.97;4974909;28;20246;-60
2023/03/02 01:50:06;;;;;;;13.97;10.60;;;;;;;1.31;92.04;100483.78;4975750;28;20183;-60
2023/03/02 01:52:37;;;;;;;14.07;10.40;;;;;;;1.09;93.32;100489.06;4964437;28;20225;-60
2023/03/02 01:55:05;;;;;;;16.40;10.73;;;;;;;1.14;93.06;100494.06;4975455;28;20200;-61
2023/03/02 01:57:42;;;;;;;16.20;11.47;;;;;;;1.02;93.87;100489.97;4973685;28;20290;-60
2023/03/02 02:00:12;;;;;;;17.20;10.50;;;;;;;1.04;93.83;100480.66;4964641;28;20194;-61
2023/03/02 02:02:40;;;;;;;14.47;10.07;;;;;;;1.07;93.51;100479.78;4974152;28;20194;-60
2023/03/02 02:05:08;;;;;;;14.77;11.20;;;;;;;1.09;93.60;100478.94;4975221;28;20186;-60
2023/03/02 02:07:34;;;;;;;14.30;10.83;;;;;;;1.19;93.95;100472.06;4973702;28;20240;-61
2023/03/02 02:10:01;;;;;;;15.27;10.93;;;;;;;1.09;93.79;100476.38;4973633;28;20182;-60
2023/03/02 02:12:26;;;;;;;14.93;10.73;;;;;;;1.05;94.24;100474.72;4964518;28;20631;-60
2023/03/02 02:14:52;;;;;;;16.77;10.37;;;;;;;1.15;93.84;100467.88;4975068;28;20238;-60
2023/03/02 02:17:18;;;;;;;15.77;11.53;;;;;;;1.22;93.25;100466.13;4972537;28;20197;-61
2023/03/02 02:19:55;;;;;;;15.20;10.77;;;;;;;1.23;93.10;100462.75;4974688;28;20195;-60
2023/03/02 02:22:38;;;;;;;13.50;11.20;;;;;;;1.24;93.05;100462.72;4972259;28;20223;-60
2023/03/02 02:25:15;;;;;;;16.80;11.63;;;;;;;1.26;93.34;100453.41;4963564;28;20184;-61
2023/03/02 02:27:41;;;;;;;14.37;11.37;;;;;;;1.21;94.26;100460.22;4973069;28;20279;-60
2023/03/02 02:30:07;;;;;;;16.33;11.67;;;;;;;1.16;93.93;100448.47;4965264;28;20180;-61
2023/03/02 02:32:37;;;;;;;17.43;11.03;;;;;;;1.15;93.92;100454.38;4989065;28;20236;-62
2023/03/02 02:35:10;;;;;;;16.30;11.57;;;;;;;1.21;93.35;100447.53;4973511;28;20207;-61
2023/03/02 02:37:45;;;;;;;14.40;10.90;;;;;;;1.08;94.06;100449.38;4973000;28;20208;-60
2023/03/02 02:40:35;;;;;;;16.27;10.60;;;;;;;1.01;94.50;100449.44;4964381;28;20679;-60
2023/03/02 02:43:01;;;;;;;14.33;10.90;;;;;;;1.07;95.38;100447.69;4952874;29;20340;-60
2023/03/02 02:45:26;;;;;;;16.17;11.67;;;;;;;1.17;94.35;100448.44;4952697;29;20709;-61
2023/03/02 02:47:54;;;;;;;16.67;11.33;;;;;;;1.06;95.06;100442.66;4952261;29;20210;-60
2023/03/02 02:50:28;;;;;;;13.30;10.30;;;;;;;1.05;95.19;100440.97;4942707;28;20181;-60
2023/03/02 02:53:05;;;;;;;18.20;11.33;;;;;;;1.08;95.04;100435.84;4936864;29;20217;-60
2023/03/02 02:55:32;;;;;;;17.60;11.40;;;;;;;1.09;94.64;100433.31;4952662;29;20208;-60
2023/03/02 02:58:01;;;;;;;14.43;10.63;;;;;;;1.08;95.23;100435.84;4920244;28;20217;-61
2023/03/02 03:00:26;;;;;;;14.73;10.77;;;;;;;1.08;95.36;100436.69;4942579;28;20248;-60
2023/03/02 03:03:06;;;;;;;14.27;10.93;;;;;;;0.88;97.65;100434.38;4952714;28;20198;-60
2023/03/02 03:05:32;;;;;;;14.77;10.77;;;;;;;0.87;97.92;100429.28;4936610;29;20271;-60
2023/03/02 03:08:42;;;;;;;21.73;11.37;;;;;;;0.87;97.83;100426.75;4935924;29;20367;-60
2023/03/02 03:11:10;;;;;;;14.40;9.80;;;;;;;0.80;98.59;100431.06;4907587;28;20756;-60
2023/03/02 03:13:37;;;;;;;16.10;10.90;;;;;;;0.87;98.41;100431.81;4940505;28;20197;-60
2023/03/02 03:16:05;;;;;;;14.93;11.33;;;;;;;0.91;98.05;100429.25;4971759;28;20241;-60
2023/03/02 03:18:30;;;;;;;18.00;12.03;;;;;;;0.82;98.73;100428.50;4972454;28;20213;-59
2023/03/02 03:20:56;;;;;;;15.13;11.00;;;;;;;0.90;98.59;100424.22;4980968;28;20370;-60
2023/03/02 03:23:22;;;;;;;15.77;11.77;;;;;;;0.84;98.49;100425.09;4972714;28;20606;-59
2023/03/02 03:25:47;;;;;;;17.90;11.00;;;;;;;0.91;98.51;100423.38;4972732;28;20184;-61
2023/03/02 03:28:12;;;;;;;15.90;11.07;;;;;;;0.86;98.19;100415.81;4973086;28;20562;-61
2023/03/02 03:30:38;;;;;;;16.40;12.20;;;;;;;0.86;98.85;100414.97;4968410;28;20227;-60
2023/03/02 03:33:03;;;;;;;14.27;11.07;;;;;;;0.85;98.99;100413.28;4982045;28;20193;-60
2023/03/02 03:35:28;;;;;;;16.20;11.70;;;;;;;0.76;100.00;100404.91;4973781;28;20189;-60
2023/03/02 03:37:53;;;;;;;16.67;11.50;;;;;;;0.80;100.00;100406.56;4972987;28;20209;-60
2023/03/02 03:40:19;;;;;;;17.27;11.60;;;;;;;0.82;100.00;100408.25;4965763;28;20188;-59
2023/03/02 03:42:44;;;;;;;13.67;10.57;;;;;;;0.80;100.00;100413.31;4966621;28;20569;-59
2023/03/02 03:45:09;;;;;;;21.33;11.27;;;;;;;0.92;100.00;100413.22;4966655;28;20521;-59
2023/03/02 03:47:35;;;;;;;16.37;12.07;;;;;;;0.95;100.00;100414.88;4972849;28;20215;-59
2023/03/02 03:50:00;;;;;;;15.23;10.90;;;;;;;1.04;99.50;100419.00;4973415;28;20252;-59
2023/03/02 03:52:32;;;;;;;17.50;12.00;;;;;;;1.10;99.58;100411.34;4978339;28;20255;-60
2023/03/02 03:55:01;;;;;;;17.57;10.90;;;;;;;1.08;99.48;100408.84;4972399;28;20263;-61
2023/03/02 03:57:30;;;;;;;15.73;11.80;;;;;;;1.11;99.58;100405.44;4971645;28;20297;-59
2023/03/02 03:59:55;;;;;;;15.83;11.73;;;;;;;1.03;99.72;100413.13;4971663;28;20195;-60
2023/03/02 04:02:21;;;;;;;17.47;11.70;;;;;;;1.01;100.00;100404.69;4968212;28;20225;-60
2023/03/02 04:04:46;;;;;;;18.27;12.77;;;;;;;0.98;100.00;100411.47;4972887;28;20178;-61
2023/03/02 04:07:12;;;;;;;17.03;11.03;;;;;;;1.04;100.00;100416.47;4973023;28;20201;-60
2023/03/02 04:09:38;;;;;;;17.27;11.27;;;;;;;1.01;100.00;100409.75;4971898;28;20180;-61
2023/03/02 04:12:05;;;;;;;16.30;11.93;;;;;;;1.02;100.00;100418.16;4977977;28;20311;-61
2023/03/02 04:14:30;;;;;;;16.33;12.07;;;;;;;0.99;100.00;100423.28;4971591;28;20239;-61
2023/03/02 04:16:56;;;;;;;16.07;11.40;;;;;;;1.05;100.00;100418.16;4964750;28;20257;-60
2023/03/02 04:19:22;;;;;;;15.87;12.10;;;;;;;1.09;100.00;100417.25;4973422;28;20345;-63
2023/03/02 04:21:51;;;;;;;17.40;12.13;;;;;;;1.05;100.00;100421.50;4989582;28;20242;-60
2023/03/02 04:24:18;;;;;;;20.10;12.43;;;;;;;1.10;100.00;100427.41;4970354;28;20659;-60
2023/03/02 04:26:45;;;;;;;16.10;11.83;;;;;;;0.97;100.00;100433.44;4971320;28;20303;-60
2023/03/02 04:29:11;;;;;;;16.60;12.20;;;;;;;1.11;100.00;100426.53;4971291;28;20230;-60
2023/03/02 04:31:37;;;;;;;16.57;12.87;;;;;;;1.16;100.00;100433.25;4974746;28;20223;-60
2023/03/02 04:34:03;;;;;;;20.03;12.07;;;;;;;1.16;100.00;100433.25;4971014;28;20194;-60
2023/03/02 04:36:30;;;;;;;16.43;11.60;;;;;;;1.17;100.00;100435.78;4971153;28;20183;-60
2023/03/02 04:38:56;;;;;;;19.07;12.83;;;;;;;1.08;100.00;100428.25;4971310;28;20208;-61
2023/03/02 04:41:21;;;;;;;16.63;11.90;;;;;;;1.07;100.00;100434.19;4972265;28;20566;-60
2023/03/02 04:43:47;;;;;;;19.53;12.13;;;;;;;0.99;100.00;100435.94;4971268;28;20184;-60
2023/03/02 04:46:15;;;;;;;17.27;12.47;;;;;;;0.85;100.00;100444.50;4972106;28;20340;-61
2023/03/02 04:48:40;;;;;;;21.57;13.33;;;;;;;0.83;100.00;100448.75;4971206;28;20659;-61
2023/03/02 04:51:06;;;;;;;19.50;13.30;;;;;;;0.76;100.00;100442.06;4970690;28;20224;-60
2023/03/02 04:53:31;;;;;;;17.37;12.20;;;;;;;0.67;100.00;100442.13;4979567;28;20189;-60
2023/03/02 04:55:56;;;;;;;18.00;11.80;;;;;;;0.71;100.00;100444.63;4970613;28;20176;-60
2023/03/02 04:58:21;;;;;;;16.43;11.80;;;;;;;0.69;100.00;100437.91;4954387;28;20216;-61
2023/03/02 05:00:47;;;;;;;15.33;12.27;;;;;;;0.49;100.00;100443.97;4968301;28;20224;-60
2023/03/02 05:03:12;;;;;;;18.47;12.17;;;;;;;0.42;100.00;100444.84;4981631;28;20279;-61
2023/03/02 05:05:37;;;;;;;17.57;12.10;;;;;;;0.39;100.00;100448.25;4972760;28;20194;-61
2023/03/02 05:08:03;;;;;;;16.73;12.20;;;;;;;0.42;100.00;100447.38;4970500;28;20180;-60
2023/03/02 05:10:28;;;;;;;19.80;13.77;;;;;;;0.32;100.00;100444.06;4965938;28;20699;-60
2023/03/02 05:12:56;;;;;;;18.97;12.27;;;;;;;0.44;100.00;100448.22;4971083;28;20176;-61
2023/03/02 05:15:24;;;;;;;17.07;12.13;;;;;;;0.36;100.00;100443.22;4972433;28;20291;-60
2023/03/02 05:17:49;;;;;;;17.80;12.90;;;;;;;0.53;100.00;100442.25;4970122;28;20208;-61
2023/03/02 05:20:15;;;;;;;17.23;12.20;;;;;;;0.54;100.00;100439.69;4969732;28;20172;-60
2023/03/02 05:22:40;;;;;;;16.53;12.80;;;;;;;0.53;100.00;100435.47;4990756;28;20271;-60
2023/03/02 05:25:06;;;;;;;16.30;12.53;;;;;;;0.37;100.00;100431.41;4972467;28;20670;-60
2023/03/02 05:27:31;;;;;;;18.30;12.43;;;;;;;0.28;100.00;100438.19;4971666;28;20219;-60
2023/03/02 05:29:57;;;;;;;17.43;12.90;;;;;;;0.20;100.00;100441.63;4972228;28;20206;-60
2023/03/02 05:32:22;;;;;;;17.80;12.67;;;;;;;0.14;100.00;100433.22;4977458;28;20231;-60
2023/03/02 05:34:47;;;;;;;18.13;12.80;;;;;;;0.07;100.00;100430.75;4972600;28;20311;-61
2023/03/02 05:37:13;;;;;;;19.10;13.13;;;;;;;-0.06;100.00;100437.56;4971708;28;20185;-60
2023/03/02 05:39:38;;;;;;;22.77;13.57;;;;;;;-0.09;100.00;100428.28;4972415;28;20238;-60
2023/03/02 05:42:03;;;;;;;18.60;12.77;;;;;;;-0.07;100.00;100430.84;4976841;28;20219;-60
2023/03/02 05:44:29;;;;;;;15.53;11.37;;;;;;;-0.05;100.00;100429.13;4972235;28;20535;-60
2023/03/02 05:46:54;;;;;;;22.20;12.90;;;;;;;0.01;100.00;100434.13;4971742;28;20176;-60
2023/03/02 05:49:19;;;;;;;20.37;12.57;;;;;;;0.04;100.00;100433.28;4972376;28;20635;-60
2023/03/02 05:51:44;;;;;;;16.20;11.87;;;;;;;0.10;100.00;100434.09;4975601;28;20219;-60
2023/03/02 05:54:11;;;;;;;15.30;12.10;;;;;;;0.03;100.00;100440.03;4967876;28;20191;-60
2023/03/02 05:56:36;;;;;;;18.13;13.50;;;;;;;0.04;100.00;100438.34;4975182;28;20185;-60
2023/03/02 05:59:01;;;;;;;18.23;12.33;;;;;;;-0.07;100.00;100440.94;4975475;28;20219;-60
2023/03/02 06:01:27;;;;;;;16.60;12.40;;;;;;;-0.09;100.00;100445.16;4976481;28;20354;-60
2023/03/02 06:03:52;;;;;;;20.37;12.80;;;;;;;-0.14;100.00;100446.88;4979802;28;20584;-60
2023/03/02 06:06:17;;;;;;;17.83;12.23;;;;;;;-0.20;100.00;100446.06;4975415;28;20199;-61
2023/03/02 06:08:43;;;;;;;15.20;12.00;;;;;;;-0.03;100.00;100453.53;4975493;28;20242;-62
2023/03/02 06:11:09;;;;;;;19.10;12.50;;;;;;;-0.09;100.00;100447.69;4948022;28;20283;-60
2023/03/02 06:13:35;;;;;;;18.13;12.17;;;;;;;0.02;100.00;100447.66;4982855;28;20655;-60
2023/03/02 06:16:01;;;;;;;19.50;11.60;;;;;;;0.04;100.00;100444.25;4974644;28;20263;-63
2023/03/02 06:18:26;;;;;;;16.17;11.57;;;;;;;0.21;100.00;100450.91;4961124;28;20206;-61
2023/03/02 06:20:51;;;;;;;16.70;11.97;;;;;;;0.20;100.00;100454.28;4981520;28;20260;-61
2023/03/02 06:23:17;;;;;;;16.80;11.20;;;;;;;0.28;100.00;100455.06;4983722;28;20180;-60
2023/03/02 06:25:47;;;;;;;16.97;11.13;;;;;;;0.20;100.00;100450.06;4975160;28;20198;-62
2023/03/02 06:28:17;;;;;;;17.33;10.63;;;;;;;0.28;100.00;100455.91;4974341;28;20204;-61
2023/03/02 06:30:42;;;;;;;18.07;11.80;;;;;;;0.29;100.00;100456.75;4966481;28;20234;-61
2023/03/02 06:33:08;;;;;;;16.60;10.83;;;;;;;0.40;100.00;100459.22;4985027;28;20188;-61
2023/03/02 06:35:33;;;;;;;17.40;11.67;;;;;;;0.47;100.00;100466.75;4974659;28;20275;-61
2023/03/02 06:37:58;;;;;;;18.47;11.40;;;;;;;0.59;100.00;100463.28;4957411;28;20696;-60
2023/03/02 06:40:24;;;;;;;16.53;10.97;;;;;;;0.57;100.00;100464.16;4958658;28;20240;-62
2023/03/02 06:42:49;;;;;;;21.27;12.20;;;;;;;0.70;100.00;100467.44;4986534;28;20204;-62
2023/03/02 06:45:14;;;;;;;16.97;11.87;;;;;;;0.74;100.00;100474.16;4969494;28;20178;-62
2023/03/02 06:47:40;;;;;;;15.17;11.40;;;;;;;0.81;100.00;100463.13;4962663;28;20589;-61
2023/03/02 06:50:06;;;;;;;15.87;11.00;;;;;;;0.84;100.00;100459.72;4964186;28;20243;-61
2023/03/02 06:52:33;;;;;;;19.53;11.00;;;;;;;1.00;100.00;100462.97;4967812;28;20197;-61
2023/03/02 06:54:59;;;;;;;15.20;10.33;;;;;;;1.19;100.00;100463.63;4957452;28;20181;-61
2023/03/02 06:57:32;;;;;;;15.43;11.13;;;;;;;1.13;100.00;100464.53;4972458;28;20211;-62
2023/03/02 06:59:57;;;;;;;13.87;10.50;;;;;;;1.21;100.00;100470.34;4973718;28;20177;-61
2023/03/02 07:02:23;;;;;;;18.57;11.37;;;;;;;1.27;100.00;100465.22;4979011;28;20228;-63
2023/03/02 07:04:48;;;;;;;14.10;10.60;;;;;;;1.46;100.00;100465.03;4973097;28;20185;-61
2023/03/02 07:07:14;;;;;;;15.63;11.43;;;;;;;1.55;100.00;100467.47;4972642;28;20267;-61
2023/03/02 07:09:39;;;;;;;15.67;10.40;;;;;;;1.67;100.00;100471.53;4971131;28;20219;-61
2023/03/02 07:12:05;;;;;;;17.30;10.33;;;;;;;2.28;99.44;100458.91;4964430;28;20595;-61
2023/03/02 07:14:30;;;;;;;14.30;10.77;;;;;;;3.52;92.29;100467.00;4972235;28;20252;-62
2023/03/02 07:16:56;;;;;;;21.63;10.50;;;;;;;4.46;79.73;100466.72;4966488;28;20212;-61
2023/03/02 07:19:21;;;;;;;12.87;9.37;;;;;;;5.04;73.01;100464.47;4968129;28;20620;-62
2023/03/02 07:21:47;;;;;;;19.07;10.40;;;;;;;5.74;67.04;100457.47;4979084;28;20219;-61
2023/03/02 07:24:12;;;;;;;16.07;10.50;;;;;;;5.99;62.86;100457.63;4972190;28;20737;-61
2023/03/02 07:26:37;;;;;;;14.53;10.00;;;;;;;6.76;59.63;100459.50;4973440;28;20197;-61
2023/03/02 07:29:02;;;;;;;14.80;10.87;;;;;;;6.06;59.76;100459.09;4969228;28;20281;-62
2023/03/02 07:31:28;;;;;;;16.20;10.40;;;;;;;6.29;60.13;100452.47;4974675;28;20570;-64
2023/03/02 07:33:53;;;;;;;12.47;10.37;;;;;;;6.48;58.22;100455.28;4976067;28;20200;-63
2023/03/02 07:36:18;;;;;;;15.33;9.80;;;;;;;6.71;57.07;100454.53;4973755;28;20180;-63
2023/03/02 07:38:43;;;;;;;10.97;9.50;;;;;;;6.35;58.50;100456.53;4973615;28;20278;-64
2023/03/02 07:41:09;;;;;;;14.90;9.83;;;;;;;6.30;59.29;100461.78;4971941;28;20219;-62
2023/03/02 07:43:36;;;;;;;14.43;9.43;;;;;;;5.74;60.50;100463.44;4979999;28;20273;-62
2023/03/02 07:46:05;;;;;;;13.73;9.93;;;;;;;5.41;63.37;100466.03;4971744;28;20195;-62
2023/03/02 07:48:31;;;;;;;12.93;9.90;;;;;;;4.87;67.54;100474.25;4970519;28;20180;-62
2023/03/02 07:51:01;;;;;;;15.50;9.87;;;;;;;4.72;69.25;100473.75;4965050;28;20347;-62
2023/03/02 07:53:27;;;;;;;11.70;9.53;;;;;;;4.11;74.28;100483.63;4980544;28;20314;-62
2023/03/02 07:55:53;;;;;;;12.10;9.77;;;;;;;3.62;79.88;100465.13;4972450;28;20188;-62
2023/03/02 07:58:19;;;;;;;14.97;10.93;;;;;;;3.45;82.23;100467.97;4972927;28;20220;-61
2023/03/02 08:00:44;;;;;;;11.90;9.73;;;;;;;3.28;84.86;100470.84;4958509;28;20262;-62
2023/03/02 08:03:09;;;;;;;14.20;9.70;;;;;;;3.31;85.56;100469.09;4982593;28;20185;-62
2023/03/02 08:05:35;;;;;;;14.20;10.30;;;;;;;3.53;84.21;100468.69;4971088;28;20638;-62
2023/03/02 08:08:00;;;;;;;14.20;10.40;;;;;;;3.60;83.03;100474.47;4972544;28;20196;-62
2023/03/02 08:10:25;;;;;;;14.57;10.47;;;;;;;3.42;84.86;100458.69;4964710;28;20618;-62
2023/03/02 08:12:51;;;;;;;16.93;10.17;;;;;;;3.47;84.64;100459.44;4978595;28;20533;-62
2023/03/02 08:15:16;;;;;;;17.37;10.77;;;;;;;3.66;83.87;100459.94;4953034;28;20306;-61
2023/03/02 08:17:42;;;;;;;13.13;9.67;;;;;;;3.91;82.57;100461.13;4970888;28;20219;-62
2023/03/02 08:20:08;;;;;;;13.60;10.47;;;;;;;3.95;80.91;100458.50;4967338;28;20195;-62
2023/03/02 08:22:34;;;;;;;14.37;9.83;;;;;;;4.09;79.90;100454.81;4993048;28;20207;-62
2023/03/02 08:24:59;;;;;;;14.13;10.60;;;;;;;4.14;79.14;100461.50;4971325;28;20189;-63
2023/03/02 08:27:25;;;;;;;16.43;10.57;;;;;;;4.15;77.40;100467.41;4972018;28;20544;-61
2023/03/02 08:29:50;;;;;;;16.50;10.40;;;;;;;4.02;79.10;100462.59;4969343;28;20191;-63
2023/03/02 08:32:15;;;;;;;13.97;9.33;;;;;;;4.04;78.70;100457.44;4971469;28;20310;-62
2023/03/02 08:34:40;;;;;;;11.87;9.60;;;;;;;4.02;80.57;100454.94;4965524;28;20536;-62
2023/03/02 08:37:06;;;;;;;13.00;11.57;;;;;;;4.31;77.80;100458.53;4960642;28;20412;-63
2023/03/02 08:39:32;;;;;;;13.83;10.53;;;;;;;4.31;77.58;100463.66;4971227;28;20529;-62
2023/03/02 08:41:58;;;;;;;15.27;11.47;;;;;;;4.35;77.13;100452.53;4962576;28;20673;-62
2023/03/02 08:44:23;;;;;;;13.53;9.77;;;;;;;4.38;76.76;100450.75;4955342;28;20285;-63
2023/03/02 08:46:49;;;;;;;15.37;11.13;;;;;;;4.46;75.64;100444.63;4952674;28;20197;-63
2023/03/02 08:49:16;;;;;;;15.33;10.63;;;;;;;4.60;74.32;100451.09;4971054;28;20185;-62
2023/03/02 08:51:42;;;;;;;16.10;10.57;;;;;;;4.60;74.17;100446.00;4969025;28;20283;-63
2023/03/02 08:54:08;;;;;;;14.50;10.30;;;;;;;4.71;74.66;100443.19;4970991;28;20180;-61
2023/03/02 08:56:36;;;;;;;18.33;10.30;;;;;;;4.65;72.92;100449.28;4972054;28;20217;-62
2023/03/02 08:59:08;;;;;;;19.83;9.63;;;;;;;4.49;72.59;100444.56;4970977;28;20273;-62
2023/03/02 09:01:35;;;;;;;17.17;10.80;;;;;;;4.48;73.91;100454.78;4964125;28;20311;-62
2023/03/02 09:04:01;;;;;;;13.07;10.20;;;;;;;4.57;72.84;100444.38;4975427;28;20648;-62
2023/03/02 09:06:29;;;;;;;16.23;10.57;;;;;;;4.65;71.68;100442.47;4970420;28;20188;-62
2023/03/02 09:08:54;;;;;;;12.00;8.87;;;;;;;4.60;72.34;100439.22;4970876;28;20189;-63
2023/03/02 09:11:19;;;;;;;12.90;8.80;;;;;;;4.64;72.23;100442.50;4972103;28;20236;-61
2023/03/02 09:13:45;;;;;;;15.67;8.93;;;;;;;4.83;71.60;100440.34;4977490;28;20183;-62
2023/03/02 09:16:11;;;;;;;14.70;10.10;;;;;;;5.23;69.42;100428.28;4969907;28;21861;-62
2023/03/02 09:18:36;;;;;;;17.47;10.93;;;;;;;6.21;63.66;100431.44;4970962;28;20223;-63
2023/03/02 09:21:02;;;;;;;12.87;10.13;;;;;;;6.66;58.61;100425.75;4970886;28;20492;-62
2023/03/02 09:23:28;;;;;;;15.13;10.03;;;;;;;7.88;55.38;100428.28;4970861;28;20180;-63
2023/03/02 09:25:54;;;;;;;14.37;10.97;;;;;;;8.55;51.59;100424.81;4970895;28;20565;-63
2023/03/02 09:28:22;;;;;;;15.57;10.80;;;;;;;9.34;49.34;100418.91;4976077;28;20255;-62
2023/03/02 09:30:50;;;;;;;12.70;10.27;;;;;;;9.62;46.78;100420.22;4967267;28;20239;-62
2023/03/02 09:33:15;;;;;;;17.40;10.77;;;;;;;9.18;46.89;100423.06;4974581;28;20201;-62
2023/03/02 09:35:41;;;;;;;12.40;10.90;;;;;;;9.55;47.23;100421.44;4973998;28;20194;-62
2023/03/02 09:38:06;;;;;;;15.63;10.53;;;;;;;9.85;47.02;100420.94;4973539;28;20192;-63
2023/03/02 09:40:36;;;;;;;19.43;11.10;;;;;;;10.74;44.25;100421.00;4963723;28;20249;-63
2023/03/02 09:43:16;;;;;;;14.23;10.63;;;;;;;9.91;45.23;100420.66;4977331;28;20200;-62
2023/03/02 09:46:01;;;;;;;13.55;11.95;;;;;;;11.10;43.31;100414.88;4974679;28;20426;-62
2023/03/02 09:48:39;;;;;;;14.40;11.90;;;;;;;10.33;44.00;100414.38;4967969;28;20501;-62
2023/03/02 09:51:24;;;;;;;13.67;11.27;;;;;;;10.63;43.52;100428.38;4973048;28;20227;-63
2023/03/02 09:53:59;;;;;;;14.93;10.23;;;;;;;10.64;43.25;100418.03;4973912;28;20731;-67
2023/03/02 09:56:25;;;;;;;13.10;11.40;;;;;;;9.63;45.01;100421.91;4973003;28;20198;-62
2023/03/02 09:58:59;;;;;;;12.97;10.93;;;;;;;10.10;44.67;100422.34;4973722;28;20251;-63
2023/03/02 10:01:34;;;;;;;13.67;10.97;;;;;;;10.08;44.38;100421.59;4967117;28;20316;-62
2023/03/02 10:04:12;;;;;;;12.98;11.65;;;;;;;11.95;41.19;100422.41;4973017;28;20430;-63
2023/03/02 10:06:37;;;;;;;14.57;10.77;;;;;;;11.11;42.09;100420.84;4973460;28;20187;-63
2023/03/02 10:09:02;;;;;;;14.37;10.60;;;;;;;11.13;42.64;100417.28;4975188;28;20198;-62
2023/03/02 10:11:34;;;;;;;13.17;11.10;;;;;;;10.48;43.50;100419.69;4975600;28;20242;-62
2023/03/02 10:14:11;;;;;;;12.27;9.97;;;;;;;10.60;43.14;100429.38;4978477;28;20184;-62
2023/03/02 10:16:46;;;;;;;13.18;11.20;;;;;;;10.71;42.86;100423.69;4972527;28;20508;-63
2023/03/02 10:19:23;;;;;;;12.27;10.50;;;;;;;12.13;40.27;100425.75;4974853;28;20266;-63
2023/03/02 10:21:57;;;;;;;10.87;9.70;;;;;;;12.44;39.88;100421.44;4972224;28;20287;-63
2023/03/02 10:24:30;;;;;;;13.83;10.00;;;;;;;12.22;40.43;100412.34;4959435;28;20215;-62
2023/03/02 10:27:14;;;;;;;22.57;16.77;;;;;;;11.85;40.54;100409.19;4973247;28;20184;-62
2023/03/02 10:29:50;;;;;;;15.20;10.83;;;;;;;11.49;41.30;100406.88;4969575;28;20344;-62
2023/03/02 10:32:31;;;;;;;13.07;10.67;;;;;;;11.04;42.32;100417.75;4963452;28;20606;-62
2023/03/02 10:35:00;;;;;;;13.03;9.70;;;;;;;9.69;45.00;100413.91;4986352;28;20198;-62
2023/03/02 10:37:29;;;;;;;13.10;10.73;;;;;;;9.06;47.19;100413.34;4971909;28;20218;-62
2023/03/02 10:39:55;;;;;;;12.27;9.83;;;;;;;8.88;48.63;100405.50;4973088;28;20279;-62
2023/03/02 10:42:29;;;;;;;12.93;10.67;;;;;;;8.06;50.79;100416.47;4963683;28;20215;-61
2023/03/02 10:45:04;;;;;;;12.53;10.07;;;;;;;7.60;52.80;100411.38;4972653;28;20184;-62
2023/03/02 10:47:30;;;;;;;14.97;10.40;;;;;;;7.66;53.75;100411.16;4972509;28;20183;-61
2023/03/02 10:49:56;;;;;;;13.23;10.70;;;;;;;7.79;54.12;100403.00;4965052;28;20214;-62
2023/03/02 10:52:25;;;;;;;14.13;10.00;;;;;;;7.63;54.09;100402.75;4963825;28;20231;-62
2023/03/02 10:55:11;;;;;;;14.23;9.97;;;;;;;7.31;55.33;100407.34;4973054;28;20246;-61
2023/03/02 10:57:41;;;;;;;15.90;10.47;;;;;;;7.42;56.04;100408.59;4962412;28;20200;-62
2023/03/02 11:00:26;;;;;;;12.70;10.07;;;;;;;7.21;56.45;100406.84;4962929;28;20183;-62
2023/03/02 11:02:58;;;;;;;12.33;9.93;;;;;;;7.25;57.64;100396.41;4983972;28;20184;-63
2023/03/02 11:05:31;;;;;;;14.43;9.20;;;;;;;7.37;58.04;100395.16;4972508;28;20191;-62
2023/03/02 11:08:08;;;;;;;12.63;9.40;;;;;;;7.59;56.61;100387.50;4973170;28;20194;-62
2023/03/02 11:10:39;;;;;;;16.10;10.63;;;;;;;7.67;56.00;100396.63;4962889;28;20310;-63
2023/03/02 11:13:19;;;;;;;12.70;10.40;;;;;;;7.74;56.42;100388.66;4971986;28;20422;-62
2023/03/02 11:15:50;;;;;;;12.93;10.33;;;;;;;7.58;56.08;100379.91;4971597;28;20295;-62
2023/03/02 11:18:40;;;;;;;11.90;9.03;;;;;;;7.74;56.25;100382.72;4970378;28;20195;-62
2023/03/02 11:21:13;;;;;;;11.30;8.70;;;;;;;7.64;56.85;100374.53;4965799;28;20574;-62